Allenville, Illinois
Current Conditions -  °F | °C
As of 12:53 AM on Sunday 26 Oct 2014 (Local Time) from KMTO Reporting Station
Clear Clear  
Wind Chill: 50°   Ceiling: Unl
Heat Index: 50°   Visibility: 10mi
Dew Point: 41°   Wind: 6mph
Humidity: 71%   Direction: 320°NW
Pressure: 30.01"   Gusts: NA
Location:  39.5872°N, 88.5835°W
Report Text: KMTO 260553Z AUTO 32005KT 10SM CLR 10/05 A3001 RMK AO2 SLP160 T01000050 10189 20094 402560094 51004
Loading
Personal Weather Stations






























Interactive Weather Map
Tropical Storm Tracking
New forecast layout! Learn more

10-Day Weather Forecast

Advertisements
Track Severe Weather on mobile